sensor_id;sensor_type;location;lat;lon;timestamp;pressure;altitude;pressure_sealevel;temperature;humidity
85055;BME280;75391;48.300;16.352;2024-03-25T00:01:49;98800.47;;;8.15;100.00
85055;BME280;75391;48.300;16.352;2024-03-25T00:04:15;98794.19;;;8.68;100.00
85055;BME280;75391;48.300;16.352;2024-03-25T00:06:41;98803.53;;;7.90;100.00
85055;BME280;75391;48.300;16.352;2024-03-25T00:09:06;98801.84;;;8.72;100.00
85055;BME280;75391;48.300;16.352;2024-03-25T00:11:32;98808.84;;;7.88;100.00
85055;BME280;75391;48.300;16.352;2024-03-25T00:13:57;98803.09;;;8.32;100.00
85055;BME280;75391;48.300;16.352;2024-03-25T00:16:23;98809.53;;;8.26;100.00
85055;BME280;75391;48.300;16.352;2024-03-25T00:18:49;98801.25;;;8.17;100.00
85055;BME280;75391;48.300;16.352;2024-03-25T00:21:14;98813.44;;;8.02;100.00
85055;BME280;75391;48.300;16.352;2024-03-25T00:23:40;98802.44;;;7.94;100.00
85055;BME280;75391;48.300;16.352;2024-03-25T00:26:05;98806.28;;;8.21;100.00
85055;BME280;75391;48.300;16.352;2024-03-25T00:28:31;98803.75;;;8.37;100.00
85055;BME280;75391;48.300;16.352;2024-03-25T00:30:56;98795.56;;;7.91;100.00
85055;BME280;75391;48.300;16.352;2024-03-25T00:33:22;98797.41;;;8.57;100.00
85055;BME280;75391;48.300;16.352;2024-03-25T00:35:48;98789.91;;;8.49;100.00
85055;BME280;75391;48.300;16.352;2024-03-25T00:38:13;98791.22;;;8.74;100.00
85055;BME280;75391;48.300;16.352;2024-03-25T00:40:39;98799.03;;;7.92;100.00
85055;BME280;75391;48.300;16.352;2024-03-25T00:43:04;98795.16;;;7.82;100.00
85055;BME280;75391;48.300;16.352;2024-03-25T00:45:30;98792.78;;;7.77;100.00
85055;BME280;75391;48.300;16.352;2024-03-25T00:47:56;98790.69;;;8.01;100.00
85055;BME280;75391;48.300;16.352;2024-03-25T00:50:22;98789.97;;;7.80;100.00
85055;BME280;75391;48.300;16.352;2024-03-25T00:52:47;98781.94;;;8.82;100.00
85055;BME280;75391;48.300;16.352;2024-03-25T00:55:13;98775.28;;;8.60;100.00
85055;BME280;75391;48.300;16.352;2024-03-25T00:57:38;98780.59;;;8.09;100.00
85055;BME280;75391;48.300;16.352;2024-03-25T01:00:04;98789.25;;;8.11;100.00
85055;BME280;75391;48.300;16.352;2024-03-25T01:02:30;98783.03;;;8.29;100.00
85055;BME280;75391;48.300;16.352;2024-03-25T01:04:55;98782.94;;;7.98;100.00
85055;BME280;75391;48.300;16.352;2024-03-25T01:07:21;98774.03;;;8.00;100.00
85055;BME280;75391;48.300;16.352;2024-03-25T01:09:47;98779.25;;;8.18;100.00
85055;BME280;75391;48.300;16.352;2024-03-25T01:12:12;98780.75;;;8.06;100.00
85055;BME280;75391;48.300;16.352;2024-03-25T01:14:38;98773.31;;;8.14;100.00
85055;BME280;75391;48.300;16.352;2024-03-25T01:17:03;98772.75;;;8.58;100.00
85055;BME280;75391;48.300;16.352;2024-03-25T01:19:29;98773.09;;;8.35;100.00
85055;BME280;75391;48.300;16.352;2024-03-25T01:21:55;98762.53;;;8.52;100.00
85055;BME280;75391;48.300;16.352;2024-03-25T01:24:20;98758.84;;;8.88;100.00
85055;BME280;75391;48.300;16.352;2024-03-25T01:26:46;98789.50;;;8.07;100.00
85055;BME280;75391;48.300;16.352;2024-03-25T01:29:11;98770.44;;;8.19;100.00
85055;BME280;75391;48.300;16.352;2024-03-25T01:31:37;98762.88;;;8.13;100.00
85055;BME280;75391;48.300;16.352;2024-03-25T01:34:02;98767.53;;;8.08;100.00
85055;BME280;75391;48.300;16.352;2024-03-25T01:36:28;98775.41;;;8.08;100.00
85055;BME280;75391;48.300;16.352;2024-03-25T01:38:53;98762.25;;;8.08;100.00
85055;BME280;75391;48.300;16.352;2024-03-25T01:41:23;98774.72;;;7.87;100.00
85055;BME280;75391;48.300;16.352;2024-03-25T01:43:49;98775.56;;;7.87;100.00
85055;BME280;75391;48.300;16.352;2024-03-25T01:46:16;98764.59;;;8.29;100.00
85055;BME280;75391;48.300;16.352;2024-03-25T01:48:44;98775.84;;;8.66;100.00
85055;BME280;75391;48.300;16.352;2024-03-25T01:51:11;98769.84;;;8.14;100.00
85055;BME280;75391;48.300;16.352;2024-03-25T01:53:38;98766.38;;;7.79;100.00
85055;BME280;75391;48.300;16.352;2024-03-25T01:56:04;98764.09;;;8.06;100.00
85055;BME280;75391;48.300;16.352;2024-03-25T01:58:30;98758.47;;;8.13;100.00
85055;BME280;75391;48.300;16.352;2024-03-25T02:00:56;98761.13;;;7.79;100.00
85055;BME280;75391;48.300;16.352;2024-03-25T02:03:22;98770.09;;;7.92;100.00
85055;BME280;75391;48.300;16.352;2024-03-25T02:05:50;98764.00;;;8.24;100.00
85055;BME280;75391;48.300;16.352;2024-03-25T02:08:18;98766.78;;;7.71;100.00
85055;BME280;75391;48.300;16.352;2024-03-25T02:10:44;98766.16;;;7.83;100.00
85055;BME280;75391;48.300;16.352;2024-03-25T02:13:10;98760.63;;;8.05;100.00
85055;BME280;75391;48.300;16.352;2024-03-25T02:15:36;98760.63;;;8.05;100.00
85055;BME280;75391;48.300;16.352;2024-03-25T02:18:01;98757.00;;;8.08;100.00
85055;BME280;75391;48.300;16.352;2024-03-25T02:20:27;98748.81;;;8.12;100.00
85055;BME280;75391;48.300;16.352;2024-03-25T02:22:53;98753.34;;;8.10;100.00
85055;BME280;75391;48.300;16.352;2024-03-25T02:25:21;98747.03;;;7.28;100.00
85055;BME280;75391;48.300;16.352;2024-03-25T02:27:47;98751.28;;;7.65;100.00
85055;BME280;75391;48.300;16.352;2024-03-25T02:30:13;98749.78;;;7.94;100.00
85055;BME280;75391;48.300;16.352;2024-03-25T02:32:39;98751.19;;;8.01;100.00
85055;BME280;75391;48.300;16.352;2024-03-25T02:35:13;98754.88;;;8.14;100.00
85055;BME280;75391;48.300;16.352;2024-03-25T02:37:40;98751.34;;;7.98;100.00
85055;BME280;75391;48.300;16.352;2024-03-25T02:40:08;98755.03;;;8.11;100.00
85055;BME280;75391;48.300;16.352;2024-03-25T02:42:33;98757.34;;;7.84;100.00
85055;BME280;75391;48.300;16.352;2024-03-25T02:44:59;98764.81;;;8.09;100.00
85055;BME280;75391;48.300;16.352;2024-03-25T02:47:25;98767.84;;;8.01;100.00
85055;BME280;75391;48.300;16.352;2024-03-25T02:49:51;98755.00;;;7.78;100.00
85055;BME280;75391;48.300;16.352;2024-03-25T02:52:18;98760.91;;;7.83;100.00
85055;BME280;75391;48.300;16.352;2024-03-25T02:54:44;98750.25;;;8.02;100.00
85055;BME280;75391;48.300;16.352;2024-03-25T02:57:10;98752.34;;;8.28;100.00
85055;BME280;75391;48.300;16.352;2024-03-25T02:59:35;98755.00;;;8.28;100.00
85055;BME280;75391;48.300;16.352;2024-03-25T03:02:01;98757.47;;;7.98;100.00
85055;BME280;75391;48.300;16.352;2024-03-25T03:04:26;98759.53;;;8.09;100.00
85055;BME280;75391;48.300;16.352;2024-03-25T03:06:52;98763.50;;;8.34;100.00
85055;BME280;75391;48.300;16.352;2024-03-25T03:09:17;98760.63;;;8.05;100.00
85055;BME280;75391;48.300;16.352;2024-03-25T03:11:43;98766.50;;;8.10;100.00
85055;BME280;75391;48.300;16.352;2024-03-25T03:14:09;98762.63;;;8.00;100.00
85055;BME280;75391;48.300;16.352;2024-03-25T03:16:35;98773.22;;;7.83;100.00
85055;BME280;75391;48.300;16.352;2024-03-25T03:19:01;98764.41;;;8.50;100.00
85055;BME280;75391;48.300;16.352;2024-03-25T03:21:26;98767.84;;;7.49;100.00
85055;BME280;75391;48.300;16.352;2024-03-25T03:23:53;98760.72;;;7.69;100.00
85055;BME280;75391;48.300;16.352;2024-03-25T03:26:19;98762.94;;;7.94;100.00
85055;BME280;75391;48.300;16.352;2024-03-25T03:28:44;98772.16;;;8.20;100.00
85055;BME280;75391;48.300;16.352;2024-03-25T03:31:10;98770.13;;;8.25;100.00
85055;BME280;75391;48.300;16.352;2024-03-25T03:33:36;98767.06;;;7.82;100.00
85055;BME280;75391;48.300;16.352;2024-03-25T03:36:01;98775.13;;;8.29;100.00
85055;BME280;75391;48.300;16.352;2024-03-25T03:38:27;98772.25;;;8.34;100.00
85055;BME280;75391;48.300;16.352;2024-03-25T03:41:02;98783.47;;;8.04;100.00
85055;BME280;75391;48.300;16.352;2024-03-25T03:43:28;98786.31;;;8.00;100.00
85055;BME280;75391;48.300;16.352;2024-03-25T03:45:53;98780.88;;;8.20;100.00
85055;BME280;75391;48.300;16.352;2024-03-25T03:48:19;98780.81;;;8.04;100.00
85055;BME280;75391;48.300;16.352;2024-03-25T03:50:45;98786.16;;;8.20;100.00
85055;BME280;75391;48.300;16.352;2024-03-25T03:53:11;98788.19;;;7.98;100.00
85055;BME280;75391;48.300;16.352;2024-03-25T03:55:36;98783.72;;;7.65;100.00
85055;BME280;75391;48.300;16.352;2024-03-25T03:58:03;98777.78;;;8.12;100.00
85055;BME280;75391;48.300;16.352;2024-03-25T04:00:28;98780.28;;;7.98;100.00
85055;BME280;75391;48.300;16.352;2024-03-25T04:02:54;98787.13;;;8.35;100.00
85055;BME280;75391;48.300;16.352;2024-03-25T04:05:20;98790.03;;;8.13;100.00
85055;BME280;75391;48.300;16.352;2024-03-25T04:07:45;98786.63;;;7.94;100.00
85055;BME280;75391;48.300;16.352;2024-03-25T04:10:11;98782.28;;;8.10;100.00
85055;BME280;75391;48.300;16.352;2024-03-25T04:12:37;98795.09;;;8.00;100.00
85055;BME280;75391;48.300;16.352;2024-03-25T04:15:03;98789.75;;;7.85;100.00
85055;BME280;75391;48.300;16.352;2024-03-25T04:17:29;98799.75;;;8.28;100.00
85055;BME280;75391;48.300;16.352;2024-03-25T04:19:54;98804.44;;;8.06;100.00
85055;BME280;75391;48.300;16.352;2024-03-25T04:22:20;98807.56;;;7.80;100.00
85055;BME280;75391;48.300;16.352;2024-03-25T04:24:46;98805.69;;;7.64;100.00
85055;BME280;75391;48.300;16.352;2024-03-25T04:27:12;98800.19;;;7.69;100.00
85055;BME280;75391;48.300;16.352;2024-03-25T04:29:38;98811.16;;;8.12;100.00
85055;BME280;75391;48.300;16.352;2024-03-25T04:32:03;98797.13;;;8.28;100.00
85055;BME280;75391;48.300;16.352;2024-03-25T04:34:30;98806.72;;;8.29;100.00
85055;BME280;75391;48.300;16.352;2024-03-25T04:36:56;98798.94;;;8.11;100.00
85055;BME280;75391;48.300;16.352;2024-03-25T04:39:22;98802.28;;;7.97;100.00
85055;BME280;75391;48.300;16.352;2024-03-25T04:41:47;98782.88;;;8.33;100.00
85055;BME280;75391;48.300;16.352;2024-03-25T04:44:13;98788.13;;;8.33;100.00
85055;BME280;75391;48.300;16.352;2024-03-25T04:46:39;98789.88;;;8.16;100.00
85055;BME280;75391;48.300;16.352;2024-03-25T04:49:05;98797.78;;;7.82;100.00
85055;BME280;75391;48.300;16.352;2024-03-25T04:51:31;98799.31;;;8.20;100.00
85055;BME280;75391;48.300;16.352;2024-03-25T04:53:57;98799.84;;;8.27;100.00
85055;BME280;75391;48.300;16.352;2024-03-25T04:56:22;98799.84;;;8.44;100.00
85055;BME280;75391;48.300;16.352;2024-03-25T04:58:48;98814.59;;;8.14;100.00
85055;BME280;75391;48.300;16.352;2024-03-25T05:01:14;98820.84;;;7.94;100.00
85055;BME280;75391;48.300;16.352;2024-03-25T05:03:39;98837.56;;;7.93;100.00
85055;BME280;75391;48.300;16.352;2024-03-25T05:06:05;98831.84;;;8.02;100.00
85055;BME280;75391;48.300;16.352;2024-03-25T05:08:31;98841.66;;;8.33;100.00
85055;BME280;75391;48.300;16.352;2024-03-25T05:10:56;98846.84;;;8.17;100.00
85055;BME280;75391;48.300;16.352;2024-03-25T05:13:22;98846.00;;;8.34;100.00
85055;BME280;75391;48.300;16.352;2024-03-25T05:15:51;98842.94;;;8.59;100.00
85055;BME280;75391;48.300;16.352;2024-03-25T05:18:17;98838.50;;;8.44;100.00
85055;BME280;75391;48.300;16.352;2024-03-25T05:20:43;98846.78;;;8.69;100.00
85055;BME280;75391;48.300;16.352;2024-03-25T05:23:08;98847.66;;;8.37;100.00
85055;BME280;75391;48.300;16.352;2024-03-25T05:25:35;98854.81;;;8.33;100.00
85055;BME280;75391;48.300;16.352;2024-03-25T05:28:00;98857.69;;;8.28;100.00
85055;BME280;75391;48.300;16.352;2024-03-25T05:30:26;98845.38;;;8.46;100.00
85055;BME280;75391;48.300;16.352;2024-03-25T05:32:52;98847.88;;;8.49;100.00
85055;BME280;75391;48.300;16.352;2024-03-25T05:35:18;98856.94;;;8.26;100.00
85055;BME280;75391;48.300;16.352;2024-03-25T05:37:43;98859.50;;;8.78;100.00
85055;BME280;75391;48.300;16.352;2024-03-25T05:40:09;98848.22;;;9.08;100.00
85055;BME280;75391;48.300;16.352;2024-03-25T05:42:35;98870.41;;;8.20;100.00
85055;BME280;75391;48.300;16.352;2024-03-25T05:45:01;98853.59;;;8.23;100.00
85055;BME280;75391;48.300;16.352;2024-03-25T05:47:26;98861.72;;;8.53;100.00
85055;BME280;75391;48.300;16.352;2024-03-25T05:49:52;98850.03;;;8.41;100.00
85055;BME280;75391;48.300;16.352;2024-03-25T05:52:18;98849.34;;;8.38;100.00
85055;BME280;75391;48.300;16.352;2024-03-25T05:54:43;98853.25;;;8.29;100.00
85055;BME280;75391;48.300;16.352;2024-03-25T05:57:08;98847.88;;;8.65;100.00
85055;BME280;75391;48.300;16.352;2024-03-25T05:59:34;98865.06;;;8.39;100.00
85055;BME280;75391;48.300;16.352;2024-03-25T06:02:00;98848.72;;;8.33;100.00
85055;BME280;75391;48.300;16.352;2024-03-25T06:04:25;98856.16;;;8.75;100.00
85055;BME280;75391;48.300;16.352;2024-03-25T06:06:51;98856.25;;;8.73;100.00
85055;BME280;75391;48.300;16.352;2024-03-25T06:09:16;98858.88;;;8.73;100.00
85055;BME280;75391;48.300;16.352;2024-03-25T06:11:42;98861.28;;;8.78;100.00
85055;BME280;75391;48.300;16.352;2024-03-25T06:14:07;98863.22;;;8.74;100.00
85055;BME280;75391;48.300;16.352;2024-03-25T06:16:33;98869.91;;;8.29;100.00
85055;BME280;75391;48.300;16.352;2024-03-25T06:18:58;98871.78;;;8.62;100.00
85055;BME280;75391;48.300;16.352;2024-03-25T06:21:24;98872.81;;;8.75;100.00
85055;BME280;75391;48.300;16.352;2024-03-25T06:23:49;98877.72;;;8.99;100.00
85055;BME280;75391;48.300;16.352;2024-03-25T06:26:15;98884.13;;;8.77;100.00
85055;BME280;75391;48.300;16.352;2024-03-25T06:28:41;98887.97;;;8.88;100.00
85055;BME280;75391;48.300;16.352;2024-03-25T06:31:07;98877.94;;;8.78;100.00
85055;BME280;75391;48.300;16.352;2024-03-25T06:33:32;98884.09;;;8.62;100.00
85055;BME280;75391;48.300;16.352;2024-03-25T06:35:58;98872.53;;;8.64;100.00
85055;BME280;75391;48.300;16.352;2024-03-25T06:38:24;98878.75;;;8.46;100.00
85055;BME280;75391;48.300;16.352;2024-03-25T06:40:49;98881.25;;;8.49;100.00
85055;BME280;75391;48.300;16.352;2024-03-25T06:43:15;98897.72;;;8.52;100.00
85055;BME280;75391;48.300;16.352;2024-03-25T06:45:40;98873.66;;;8.60;100.00
85055;BME280;75391;48.300;16.352;2024-03-25T06:48:06;98895.09;;;8.35;100.00
85055;BME280;75391;48.300;16.352;2024-03-25T06:50:31;98884.34;;;8.40;100.00
85055;BME280;75391;48.300;16.352;2024-03-25T06:52:57;98885.81;;;8.45;100.00
85055;BME280;75391;48.300;16.352;2024-03-25T06:55:22;98897.75;;;8.86;100.00
85055;BME280;75391;48.300;16.352;2024-03-25T06:57:48;98896.78;;;9.04;100.00
85055;BME280;75391;48.300;16.352;2024-03-25T07:00:14;98906.00;;;8.27;100.00
85055;BME280;75391;48.300;16.352;2024-03-25T07:02:40;98903.09;;;8.51;100.00
85055;BME280;75391;48.300;16.352;2024-03-25T07:05:07;98899.22;;;8.91;100.00
85055;BME280;75391;48.300;16.352;2024-03-25T07:07:33;98903.63;;;8.57;100.00
85055;BME280;75391;48.300;16.352;2024-03-25T07:09:58;98911.41;;;8.43;100.00
85055;BME280;75391;48.300;16.352;2024-03-25T07:12:24;98898.38;;;8.91;100.00
85055;BME280;75391;48.300;16.352;2024-03-25T07:14:49;98915.38;;;9.01;100.00
85055;BME280;75391;48.300;16.352;2024-03-25T07:17:15;98902.75;;;9.07;100.00
85055;BME280;75391;48.300;16.352;2024-03-25T07:19:40;98911.09;;;9.31;100.00
85055;BME280;75391;48.300;16.352;2024-03-25T07:22:06;98898.66;;;9.18;100.00
85055;BME280;75391;48.300;16.352;2024-03-25T07:24:31;98901.06;;;8.89;100.00
85055;BME280;75391;48.300;16.352;2024-03-25T07:26:57;98896.09;;;9.16;100.00
85055;BME280;75391;48.300;16.352;2024-03-25T07:29:22;98911.31;;;9.11;100.00
85055;BME280;75391;48.300;16.352;2024-03-25T07:31:48;98928.81;;;8.96;100.00
85055;BME280;75391;48.300;16.352;2024-03-25T07:34:14;98910.38;;;9.12;100.00
85055;BME280;75391;48.300;16.352;2024-03-25T07:36:39;98926.66;;;9.52;100.00
85055;BME280;75391;48.300;16.352;2024-03-25T07:39:05;98934.47;;;9.22;100.00
85055;BME280;75391;48.300;16.352;2024-03-25T07:41:30;98911.09;;;9.63;100.00
85055;BME280;75391;48.300;16.352;2024-03-25T07:43:56;98914.66;;;9.46;100.00
85055;BME280;75391;48.300;16.352;2024-03-25T07:46:21;98921.91;;;9.58;100.00
85055;BME280;75391;48.300;16.352;2024-03-25T07:48:47;98913.38;;;9.85;100.00
85055;BME280;75391;48.300;16.352;2024-03-25T07:51:12;98923.91;;;10.01;100.00
85055;BME280;75391;48.300;16.352;2024-03-25T07:53:38;98929.66;;;9.61;100.00
85055;BME280;75391;48.300;16.352;2024-03-25T07:56:04;98926.66;;;9.83;100.00
85055;BME280;75391;48.300;16.352;2024-03-25T07:58:30;98939.69;;;9.86;100.00
85055;BME280;75391;48.300;16.352;2024-03-25T08:00:55;98941.38;;;9.87;100.00
85055;BME280;75391;48.300;16.352;2024-03-25T08:03:21;98928.03;;;10.21;100.00
85055;BME280;75391;48.300;16.352;2024-03-25T08:05:46;98941.78;;;10.11;100.00
85055;BME280;75391;48.300;16.352;2024-03-25T08:08:12;98933.50;;;10.17;100.00
85055;BME280;75391;48.300;16.352;2024-03-25T08:10:37;98932.78;;;10.60;100.00
85055;BME280;75391;48.300;16.352;2024-03-25T08:13:03;98940.50;;;10.49;100.00
85055;BME280;75391;48.300;16.352;2024-03-25T08:15:28;98952.34;;;10.57;99.90
85055;BME280;75391;48.300;16.352;2024-03-25T08:17:54;98955.16;;;10.24;100.00
85055;BME280;75391;48.300;16.352;2024-03-25T08:20:19;98960.59;;;10.21;100.00
85055;BME280;75391;48.300;16.352;2024-03-25T08:22:45;98950.63;;;10.10;100.00
85055;BME280;75391;48.300;16.352;2024-03-25T08:25:11;98954.53;;;10.35;98.86
85055;BME280;75391;48.300;16.352;2024-03-25T08:27:37;98973.66;;;9.93;98.61
85055;BME280;75391;48.300;16.352;2024-03-25T08:30:03;98960.38;;;9.94;100.00
85055;BME280;75391;48.300;16.352;2024-03-25T08:32:28;98972.69;;;10.55;98.47
85055;BME280;75391;48.300;16.352;2024-03-25T08:34:54;98944.16;;;10.76;95.63
85055;BME280;75391;48.300;16.352;2024-03-25T08:37:20;98964.78;;;9.94;100.00
85055;BME280;75391;48.300;16.352;2024-03-25T08:39:45;98963.63;;;10.89;97.16
85055;BME280;75391;48.300;16.352;2024-03-25T08:42:13;98967.16;;;10.60;94.27
85055;BME280;75391;48.300;16.352;2024-03-25T08:44:38;98970.94;;;10.56;92.21
85055;BME280;75391;48.300;16.352;2024-03-25T08:47:04;98975.88;;;10.76;90.67
85055;BME280;75391;48.300;16.352;2024-03-25T08:49:29;98976.03;;;10.59;92.92
85055;BME280;75391;48.300;16.352;2024-03-25T08:51:55;98964.78;;;10.55;90.74
85055;BME280;75391;48.300;16.352;2024-03-25T08:54:20;98975.22;;;11.44;90.79
85055;BME280;75391;48.300;16.352;2024-03-25T08:56:46;98980.25;;;10.31;86.28
85055;BME280;75391;48.300;16.352;2024-03-25T08:59:12;98986.28;;;10.49;89.09
85055;BME280;75391;48.300;16.352;2024-03-25T09:01:37;98986.00;;;10.54;88.91
85055;BME280;75391;48.300;16.352;2024-03-25T09:04:03;98984.97;;;10.86;85.07
85055;BME280;75391;48.300;16.352;2024-03-25T09:06:28;98986.06;;;10.68;83.64
85055;BME280;75391;48.300;16.352;2024-03-25T09:08:54;99001.25;;;10.34;85.04
85055;BME280;75391;48.300;16.352;2024-03-25T09:11:19;98996.69;;;10.52;88.93
85055;BME280;75391;48.300;16.352;2024-03-25T09:13:45;98996.38;;;10.11;92.87
85055;BME280;75391;48.300;16.352;2024-03-25T09:16:10;98991.78;;;9.99;97.49
85055;BME280;75391;48.300;16.352;2024-03-25T09:18:36;99002.00;;;10.36;96.90
85055;BME280;75391;48.300;16.352;2024-03-25T09:21:01;98993.47;;;10.31;99.21
85055;BME280;75391;48.300;16.352;2024-03-25T09:23:27;99006.03;;;10.28;96.92
85055;BME280;75391;48.300;16.352;2024-03-25T09:25:53;98992.59;;;10.77;89.73
85055;BME280;75391;48.300;16.352;2024-03-25T09:28:19;98990.84;;;11.06;86.15
85055;BME280;75391;48.300;16.352;2024-03-25T09:30:45;98985.41;;;10.79;83.79
85055;BME280;75391;48.300;16.352;2024-03-25T09:33:10;98987.72;;;10.99;86.01
85055;BME280;75391;48.300;16.352;2024-03-25T09:35:35;98988.78;;;11.11;81.09
85055;BME280;75391;48.300;16.352;2024-03-25T09:38:01;98985.38;;;11.23;77.21
85055;BME280;75391;48.300;16.352;2024-03-25T09:40:27;98997.84;;;11.35;76.64
85055;BME280;75391;48.300;16.352;2024-03-25T09:42:56;98990.75;;;11.21;75.89
85055;BME280;75391;48.300;16.352;2024-03-25T09:45:24;98996.34;;;11.17;78.50
85055;BME280;75391;48.300;16.352;2024-03-25T09:47:50;98991.78;;;11.47;79.16
85055;BME280;75391;48.300;16.352;2024-03-25T09:50:16;98977.78;;;11.60;75.27
85055;BME280;75391;48.300;16.352;2024-03-25T09:52:42;98976.47;;;11.81;74.96
85055;BME280;75391;48.300;16.352;2024-03-25T09:55:07;98975.41;;;11.84;73.43
85055;BME280;75391;48.300;16.352;2024-03-25T09:57:34;98981.03;;;11.50;72.99
85055;BME280;75391;48.300;16.352;2024-03-25T10:00:00;98980.00;;;11.39;73.48
85055;BME280;75391;48.300;16.352;2024-03-25T10:02:28;98980.44;;;11.74;72.43
85055;BME280;75391;48.300;16.352;2024-03-25T10:04:54;98979.00;;;11.83;67.56
85055;BME280;75391;48.300;16.352;2024-03-25T10:07:24;98964.94;;;11.25;68.46
85055;BME280;75391;48.300;16.352;2024-03-25T10:09:50;98977.22;;;11.55;67.56
85055;BME280;75391;48.300;16.352;2024-03-25T10:12:16;98987.13;;;10.80;65.84
85055;BME280;75391;48.300;16.352;2024-03-25T10:14:42;98990.94;;;11.18;65.92
85055;BME280;75391;48.300;16.352;2024-03-25T10:17:08;98987.88;;;11.67;66.89
85055;BME280;75391;48.300;16.352;2024-03-25T10:19:34;98999.84;;;12.01;64.70
85055;BME280;75391;48.300;16.352;2024-03-25T10:22:07;98982.06;;;12.03;62.38
85055;BME280;75391;48.300;16.352;2024-03-25T10:24:51;98991.41;;;11.25;61.95
85055;BME280;75391;48.300;16.352;2024-03-25T10:27:22;98989.22;;;11.74;62.82
85055;BME280;75391;48.300;16.352;2024-03-25T10:29:52;98994.06;;;11.39;63.35
85055;BME280;75391;48.300;16.352;2024-03-25T10:32:17;99005.75;;;11.78;64.00
85055;BME280;75391;48.300;16.352;2024-03-25T10:34:43;99012.47;;;11.69;64.36
85055;BME280;75391;48.300;16.352;2024-03-25T10:37:10;98994.56;;;12.01;65.30
85055;BME280;75391;48.300;16.352;2024-03-25T10:39:43;98978.22;;;12.22;66.14
85055;BME280;75391;48.300;16.352;2024-03-25T10:42:13;98983.50;;;12.49;62.69
85055;BME280;75391;48.300;16.352;2024-03-25T10:44:39;98997.41;;;12.25;62.00
85055;BME280;75391;48.300;16.352;2024-03-25T10:47:06;98988.53;;;11.99;61.50
85055;BME280;75391;48.300;16.352;2024-03-25T10:49:34;98995.28;;;12.18;62.00
85055;BME280;75391;48.300;16.352;2024-03-25T10:52:02;98977.38;;;11.94;60.49
85055;BME280;75391;48.300;16.352;2024-03-25T10:54:31;98976.38;;;12.49;62.38
85055;BME280;75391;48.300;16.352;2024-03-25T10:56:58;98968.81;;;12.30;61.23
85055;BME280;75391;48.300;16.352;2024-03-25T10:59:26;98976.66;;;12.72;59.38
85055;BME280;75391;48.300;16.352;2024-03-25T11:01:53;98970.72;;;12.81;59.14
85055;BME280;75391;48.300;16.352;2024-03-25T11:04:20;98971.69;;;12.93;58.04
85055;BME280;75391;48.300;16.352;2024-03-25T11:06:46;98980.31;;;13.22;57.29
85055;BME280;75391;48.300;16.352;2024-03-25T11:09:24;98965.78;;;13.40;56.59
85055;BME280;75391;48.300;16.352;2024-03-25T11:11:50;98957.56;;;12.79;54.26
85055;BME280;75391;48.300;16.352;2024-03-25T11:14:16;98959.50;;;13.41;54.87
85055;BME280;75391;48.300;16.352;2024-03-25T11:16:41;98959.03;;;13.60;55.02
85055;BME280;75391;48.300;16.352;2024-03-25T11:19:10;98951.31;;;13.19;54.90
85055;BME280;75391;48.300;16.352;2024-03-25T11:21:36;98949.00;;;12.36;54.69
85055;BME280;75391;48.300;16.352;2024-03-25T11:24:08;98950.97;;;12.85;55.21
85055;BME280;75391;48.300;16.352;2024-03-25T11:26:34;98958.88;;;12.34;56.25
85055;BME280;75391;48.300;16.352;2024-03-25T11:28:59;98944.81;;;13.10;54.93
85055;BME280;75391;48.300;16.352;2024-03-25T11:31:25;98948.31;;;12.98;55.15
85055;BME280;75391;48.300;16.352;2024-03-25T11:33:51;98958.50;;;12.66;55.49
85055;BME280;75391;48.300;16.352;2024-03-25T11:36:17;98949.59;;;12.67;56.09
85055;BME280;75391;48.300;16.352;2024-03-25T11:38:42;98950.75;;;12.63;55.88
85055;BME280;75391;48.300;16.352;2024-03-25T11:41:10;98958.72;;;13.14;55.11
85055;BME280;75391;48.300;16.352;2024-03-25T11:43:36;98942.81;;;12.75;54.54
85055;BME280;75391;48.300;16.352;2024-03-25T11:46:02;98936.00;;;13.09;53.98
85055;BME280;75391;48.300;16.352;2024-03-25T11:48:32;98931.69;;;13.21;53.30
85055;BME280;75391;48.300;16.352;2024-03-25T11:50:57;98939.53;;;12.97;51.31
85055;BME280;75391;48.300;16.352;2024-03-25T11:53:23;98956.41;;;12.83;51.49
85055;BME280;75391;48.300;16.352;2024-03-25T11:55:49;98945.03;;;13.20;50.79
85055;BME280;75391;48.300;16.352;2024-03-25T11:58:14;98945.03;;;13.32;50.28
85055;BME280;75391;48.300;16.352;2024-03-25T12:00:47;98948.13;;;13.39;49.66
85055;BME280;75391;48.300;16.352;2024-03-25T12:03:13;98942.78;;;13.52;50.23
85055;BME280;75391;48.300;16.352;2024-03-25T12:05:41;98937.72;;;13.36;49.46
85055;BME280;75391;48.300;16.352;2024-03-25T12:08:08;98932.66;;;13.57;49.84
85055;BME280;75391;48.300;16.352;2024-03-25T12:10:34;98929.66;;;13.25;49.22
85055;BME280;75391;48.300;16.352;2024-03-25T12:13:00;98929.38;;;13.90;49.15
85055;BME280;75391;48.300;16.352;2024-03-25T12:15:25;98929.06;;;13.95;51.74
85055;BME280;75391;48.300;16.352;2024-03-25T12:17:51;98936.50;;;14.13;52.18
85055;BME280;75391;48.300;16.352;2024-03-25T12:20:17;98930.63;;;13.73;51.47
85055;BME280;75391;48.300;16.352;2024-03-25T12:22:44;98926.47;;;14.17;52.46
85055;BME280;75391;48.300;16.352;2024-03-25T12:25:10;98938.06;;;12.93;51.82
85055;BME280;75391;48.300;16.352;2024-03-25T12:27:37;98938.38;;;13.63;52.33
85055;BME280;75391;48.300;16.352;2024-03-25T12:30:12;98931.88;;;14.04;52.33
85055;BME280;75391;48.300;16.352;2024-03-25T12:32:40;98928.81;;;13.74;51.83
85055;BME280;75391;48.300;16.352;2024-03-25T12:35:13;98917.81;;;14.50;50.96
85055;BME280;75391;48.300;16.352;2024-03-25T12:37:40;98913.03;;;14.07;50.34
85055;BME280;75391;48.300;16.352;2024-03-25T12:40:07;98916.88;;;14.27;50.63
85055;BME280;75391;48.300;16.352;2024-03-25T12:42:33;98914.03;;;14.77;50.09
85055;BME280;75391;48.300;16.352;2024-03-25T12:44:58;98910.34;;;13.96;49.73